createdAt,value
2022-08-26T00:01:29.676Z,27.68
2022-08-26T00:04:00.073Z,27.59
2022-08-26T00:06:28.256Z,27.54
2022-08-26T00:08:56.917Z,27.52
2022-08-26T00:11:26.278Z,27.50
2022-08-26T00:13:57.623Z,27.51
2022-08-26T00:16:28.685Z,27.38
2022-08-26T00:18:57.620Z,27.30
2022-08-26T00:21:26.936Z,27.33
2022-08-26T00:23:55.747Z,27.31
2022-08-26T00:26:24.852Z,27.25
2022-08-26T00:28:57.912Z,27.15
2022-08-26T00:31:26.587Z,27.21
2022-08-26T00:33:55.358Z,27.19
2022-08-26T00:36:25.311Z,27.23
2022-08-26T00:39:01.914Z,27.20
2022-08-26T00:41:31.169Z,27.12
2022-08-26T00:43:59.767Z,27.00
2022-08-26T00:46:38.971Z,27.02
2022-08-26T00:49:40.189Z,26.95
2022-08-26T00:52:13.938Z,26.91
2022-08-26T00:54:51.016Z,26.82
2022-08-26T00:57:21.433Z,26.79
2022-08-26T00:59:56.235Z,26.78
2022-08-26T01:02:25.605Z,26.78
2022-08-26T01:04:57.579Z,26.71
2022-08-26T01:07:30.197Z,26.78
2022-08-26T01:10:02.761Z,26.65
2022-08-26T01:12:40.321Z,26.61
2022-08-26T01:15:11.383Z,26.59
2022-08-26T01:17:40.873Z,26.53
2022-08-26T01:20:23.033Z,26.40
2022-08-26T01:23:13.134Z,26.39
2022-08-26T01:25:45.804Z,26.32
2022-08-26T01:28:24.373Z,26.22
2022-08-26T01:30:55.447Z,26.19
2022-08-26T01:33:42.406Z,26.13
2022-08-26T01:36:12.382Z,26.09
2022-08-26T01:38:41.954Z,26.03
2022-08-26T01:41:19.947Z,25.96
2022-08-26T01:43:58.055Z,25.89
2022-08-26T01:46:29.199Z,25.78
2022-08-26T01:49:01.732Z,25.64
2022-08-26T01:51:33.121Z,25.52
2022-08-26T01:54:02.269Z,25.49
2022-08-26T01:56:33.079Z,25.44
2022-08-26T01:59:06.879Z,25.39
2022-08-26T02:01:38.906Z,25.27
2022-08-26T02:04:22.348Z,25.19
2022-08-26T02:06:51.321Z,25.11
2022-08-26T02:09:21.409Z,24.97
2022-08-26T02:11:51.115Z,24.89
2022-08-26T02:14:31.513Z,24.79
2022-08-26T02:17:00.694Z,24.76
2022-08-26T02:19:33.133Z,24.59
2022-08-26T02:22:05.638Z,24.44
2022-08-26T02:24:51.011Z,24.33
2022-08-26T02:27:23.724Z,24.27
2022-08-26T02:30:00.390Z,24.32
2022-08-26T02:32:29.948Z,24.05
2022-08-26T02:34:58.623Z,23.90
2022-08-26T02:37:32.109Z,24.00
2022-08-26T02:40:03.499Z,23.91
2022-08-26T02:42:32.229Z,23.91
2022-08-26T02:45:01.414Z,23.87
2022-08-26T02:47:30.297Z,23.77
2022-08-26T02:50:01.707Z,23.68
2022-08-26T02:52:30.173Z,23.61
2022-08-26T02:55:00.142Z,23.53
2022-08-26T02:57:28.627Z,23.26
2022-08-26T02:59:57.060Z,23.11
2022-08-26T03:02:30.116Z,23.05
2022-08-26T03:05:02.069Z,22.99
2022-08-26T03:07:31.776Z,22.86
2022-08-26T03:10:00.957Z,22.75
2022-08-26T03:12:30.259Z,22.62
2022-08-26T03:14:58.964Z,22.55
2022-08-26T03:17:27.668Z,22.41
2022-08-26T03:19:57.360Z,22.32
2022-08-26T03:22:27.479Z,22.23
2022-08-26T03:24:56.313Z,22.13
2022-08-26T03:27:24.915Z,21.98
2022-08-26T03:30:12.028Z,22.03
2022-08-26T03:32:41.562Z,21.88
2022-08-26T03:35:10.878Z,21.78
2022-08-26T03:37:40.070Z,21.74
2022-08-26T03:40:11.776Z,21.89
2022-08-26T03:42:44.404Z,21.86
2022-08-26T03:45:16.370Z,21.84
2022-08-26T03:47:46.014Z,21.94
2022-08-26T03:50:18.210Z,21.76
2022-08-26T03:52:53.928Z,21.70
2022-08-26T03:55:25.819Z,21.59
2022-08-26T03:57:56.249Z,21.45
2022-08-26T04:00:25.144Z,21.46
2022-08-26T04:02:54.301Z,21.43
2022-08-26T04:05:23.995Z,21.43
2022-08-26T04:07:53.503Z,21.41
2022-08-26T04:10:29.550Z,21.39
2022-08-26T04:12:59.495Z,21.26
2022-08-26T04:15:28.868Z,21.19
2022-08-26T04:17:57.682Z,21.28
2022-08-26T04:20:27.074Z,21.20
2022-08-26T04:22:55.519Z,21.05
2022-08-26T04:25:24.396Z,20.96
2022-08-26T04:27:53.541Z,20.94
2022-08-26T04:30:22.616Z,20.92
2022-08-26T04:32:51.785Z,20.99
2022-08-26T04:35:25.739Z,21.13
2022-08-26T04:37:54.973Z,21.09
2022-08-26T04:40:23.545Z,20.96
2022-08-26T04:42:52.580Z,20.96
2022-08-26T04:45:22.604Z,21.08
2022-08-26T04:47:57.607Z,21.02
2022-08-26T04:50:26.803Z,21.01
2022-08-26T04:52:56.630Z,20.98
2022-08-26T04:55:39.843Z,20.95
2022-08-26T04:58:15.547Z,20.89
2022-08-26T05:00:46.341Z,20.90
2022-08-26T05:03:15.351Z,20.82
2022-08-26T05:05:46.528Z,20.72
2022-08-26T05:08:16.723Z,20.70
2022-08-26T05:10:49.667Z,20.66
2022-08-26T05:13:20.896Z,20.55
2022-08-26T05:15:50.708Z,20.49
2022-08-26T05:18:22.803Z,20.34
2022-08-26T05:20:55.293Z,20.24
2022-08-26T05:23:25.631Z,20.20
2022-08-26T05:25:59.268Z,20.16
2022-08-26T05:28:30.939Z,20.05
2022-08-26T05:30:59.022Z,19.87
2022-08-26T05:33:27.758Z,19.93
2022-08-26T05:35:56.427Z,19.86
2022-08-26T05:38:25.304Z,20.04
2022-08-26T05:40:59.035Z,20.06
2022-08-26T05:43:27.980Z,19.98
2022-08-26T05:45:57.737Z,19.99
2022-08-26T05:48:26.393Z,19.89
2022-08-26T05:50:55.508Z,19.78
2022-08-26T05:53:26.050Z,19.87
2022-08-26T05:55:56.695Z,19.88
2022-08-26T05:58:28.248Z,19.83
2022-08-26T06:01:02.243Z,19.74
2022-08-26T06:03:33.456Z,19.72
2022-08-26T06:06:20.227Z,19.81
2022-08-26T06:08:56.925Z,19.75
2022-08-26T06:11:27.738Z,19.74
2022-08-26T06:14:03.642Z,19.69
2022-08-26T06:16:40.916Z,19.65
2022-08-26T06:19:11.706Z,19.54
2022-08-26T06:21:42.910Z,19.49
2022-08-26T06:24:32.022Z,19.53
2022-08-26T06:27:03.865Z,19.59
2022-08-26T06:29:37.631Z,19.54
2022-08-26T06:32:06.768Z,19.51
2022-08-26T06:34:35.575Z,19.48
2022-08-26T06:37:04.739Z,19.44
2022-08-26T06:39:35.443Z,19.47
2022-08-26T06:42:08.927Z,19.41
2022-08-26T06:44:40.991Z,19.38
2022-08-26T06:47:10.033Z,19.38
2022-08-26T06:49:38.429Z,19.34
2022-08-26T06:52:08.477Z,19.28
2022-08-26T06:54:38.796Z,19.29
2022-08-26T06:57:07.641Z,19.30
2022-08-26T06:59:36.416Z,19.30
2022-08-26T07:02:06.512Z,19.22
2022-08-26T07:04:37.047Z,19.15
2022-08-26T07:07:05.715Z,19.13
2022-08-26T07:09:38.805Z,19.06
2022-08-26T07:12:08.694Z,19.04
2022-08-26T07:14:38.625Z,18.97
2022-08-26T07:17:12.206Z,19.03
2022-08-26T07:19:42.519Z,18.99
2022-08-26T07:22:11.364Z,18.91
2022-08-26T07:24:44.700Z,18.80
2022-08-26T07:27:17.369Z,18.83
2022-08-26T07:29:45.644Z,18.74
2022-08-26T07:32:16.841Z,18.74
2022-08-26T07:34:46.714Z,18.69
2022-08-26T07:37:15.770Z,18.76
2022-08-26T07:39:46.624Z,18.70
2022-08-26T07:42:18.844Z,18.73
2022-08-26T07:44:48.569Z,18.72
2022-08-26T07:47:25.405Z,18.69
2022-08-26T07:49:56.797Z,18.67
2022-08-26T07:52:27.526Z,18.55
2022-08-26T07:54:58.762Z,18.46
2022-08-26T07:57:28.226Z,18.32
2022-08-26T07:59:57.654Z,18.43
2022-08-26T08:02:27.589Z,18.39
2022-08-26T08:04:58.146Z,18.45
2022-08-26T08:07:38.772Z,18.42
2022-08-26T08:10:22.324Z,18.42
2022-08-26T08:12:54.558Z,18.47
2022-08-26T08:15:27.830Z,18.43
2022-08-26T08:18:00.213Z,18.30
2022-08-26T08:20:29.883Z,18.26
2022-08-26T08:22:58.757Z,18.22
2022-08-26T08:25:27.141Z,18.25
2022-08-26T08:27:55.544Z,18.25
2022-08-26T08:30:25.794Z,18.17
2022-08-26T08:32:55.051Z,18.17
2022-08-26T08:35:25.444Z,18.09
2022-08-26T08:37:56.127Z,18.07
2022-08-26T08:40:27.898Z,18.09
2022-08-26T08:43:09.420Z,18.03
2022-08-26T08:45:49.631Z,18.03
2022-08-26T08:48:43.450Z,17.98
2022-08-26T08:51:15.353Z,17.97
2022-08-26T08:53:50.730Z,17.91
2022-08-26T08:56:33.508Z,17.89
2022-08-26T08:59:32.855Z,17.86
2022-08-26T09:02:12.000Z,17.82
2022-08-26T09:05:00.000Z,17.73
2022-08-26T09:07:43.256Z,17.72
2022-08-26T09:10:51.164Z,17.71
2022-08-26T09:13:25.139Z,17.64
2022-08-26T09:15:54.912Z,17.63
2022-08-26T09:18:49.237Z,17.60
2022-08-26T09:21:20.224Z,17.55
2022-08-26T09:23:53.304Z,17.50
2022-08-26T09:26:30.650Z,17.52
2022-08-26T09:29:02.712Z,17.48
2022-08-26T09:31:35.543Z,17.42
2022-08-26T09:34:07.475Z,17.40
2022-08-26T09:36:41.120Z,17.39
2022-08-26T09:39:29.523Z,17.29
2022-08-26T09:42:36.034Z,17.15
2022-08-26T09:45:11.504Z,17.04
2022-08-26T09:47:55.771Z,16.99
2022-08-26T09:50:38.099Z,16.95
2022-08-26T09:53:28.758Z,16.98
2022-08-26T09:56:23.067Z,17.00
2022-08-26T09:58:52.184Z,17.00
2022-08-26T10:01:37.042Z,17.04
2022-08-26T10:04:16.180Z,17.05
2022-08-26T10:07:09.502Z,17.06
2022-08-26T10:09:44.417Z,16.99
2022-08-26T10:12:18.908Z,16.94
2022-08-26T10:14:51.080Z,16.94
2022-08-26T10:17:45.986Z,16.87
2022-08-26T10:20:24.094Z,16.83
2022-08-26T10:23:04.084Z,16.75
2022-08-26T10:26:00.109Z,16.66
2022-08-26T10:28:45.249Z,16.55
2022-08-26T10:31:28.159Z,16.54
2022-08-26T10:34:00.271Z,16.43
2022-08-26T10:37:14.785Z,16.34
2022-08-26T10:39:58.771Z,16.29
2022-08-26T10:42:47.965Z,16.33
2022-08-26T10:45:23.205Z,16.35
2022-08-26T10:48:18.976Z,16.33
2022-08-26T10:50:50.947Z,16.30
2022-08-26T10:53:32.703Z,16.31
2022-08-26T10:56:34.649Z,16.31
2022-08-26T10:59:12.482Z,16.29
2022-08-26T11:02:04.150Z,16.39
2022-08-26T11:04:47.712Z,16.36
2022-08-26T11:07:41.794Z,16.25
2022-08-26T11:10:22.419Z,16.11
2022-08-26T11:12:53.337Z,16.14
2022-08-26T11:15:24.551Z,16.16
2022-08-26T11:17:53.588Z,16.18
2022-08-26T11:20:25.211Z,15.98
2022-08-26T11:23:17.758Z,15.79
2022-08-26T11:25:58.458Z,15.67
2022-08-26T11:28:49.805Z,15.84
2022-08-26T11:31:27.380Z,15.78
2022-08-26T11:33:59.586Z,15.65
2022-08-26T11:36:50.427Z,15.72
2022-08-26T11:39:25.784Z,15.78
2022-08-26T11:41:57.810Z,15.77
2022-08-26T11:44:30.714Z,15.72
2022-08-26T11:47:02.561Z,15.70
2022-08-26T11:49:34.259Z,15.49
2022-08-26T11:52:24.070Z,15.38
2022-08-26T11:55:15.675Z,15.41
2022-08-26T11:57:51.839Z,15.38
2022-08-26T12:00:23.475Z,15.31
2022-08-26T12:02:53.480Z,15.37
2022-08-26T12:05:32.597Z,15.49
2022-08-26T12:08:10.592Z,15.29
2022-08-26T12:10:40.024Z,15.08
2022-08-26T12:13:09.952Z,15.12
2022-08-26T12:15:39.095Z,15.08
2022-08-26T12:18:29.706Z,14.97
2022-08-26T12:21:01.927Z,14.99
2022-08-26T12:23:45.236Z,14.98
2022-08-26T12:26:26.303Z,15.01
2022-08-26T12:29:13.186Z,14.94
2022-08-26T12:31:50.099Z,14.84
2022-08-26T12:34:19.487Z,14.82
2022-08-26T12:36:55.505Z,14.85
2022-08-26T12:39:37.028Z,14.72
2022-08-26T12:42:24.033Z,14.78
2022-08-26T12:45:00.915Z,14.88
2022-08-26T12:47:42.377Z,14.94
2022-08-26T12:50:25.268Z,15.06
2022-08-26T12:53:06.126Z,15.05
2022-08-26T12:55:34.689Z,15.06
2022-08-26T12:58:18.372Z,15.13
2022-08-26T13:00:49.929Z,15.12
2022-08-26T13:03:39.073Z,15.15
2022-08-26T13:06:19.301Z,15.16
2022-08-26T13:09:02.073Z,15.14
2022-08-26T13:11:33.167Z,15.15
2022-08-26T13:14:21.038Z,15.17
2022-08-26T13:16:54.331Z,15.18
2022-08-26T13:19:26.488Z,15.19
2022-08-26T13:21:58.454Z,15.24
2022-08-26T13:24:37.886Z,15.28
2022-08-26T13:27:08.673Z,15.33
2022-08-26T13:29:37.106Z,15.35
2022-08-26T13:32:07.447Z,15.38
2022-08-26T13:34:38.305Z,15.44
2022-08-26T13:37:07.615Z,15.52
2022-08-26T13:39:36.279Z,15.59
2022-08-26T13:42:04.991Z,15.67
2022-08-26T13:44:33.928Z,15.72
2022-08-26T13:47:03.231Z,15.75
2022-08-26T13:49:35.450Z,15.81
2022-08-26T13:52:04.953Z,15.85
2022-08-26T13:54:33.540Z,15.90
2022-08-26T13:57:02.244Z,15.93
2022-08-26T13:59:30.870Z,16.01
2022-08-26T14:01:59.539Z,16.05
2022-08-26T14:04:28.513Z,16.10
2022-08-26T14:06:57.145Z,16.17
2022-08-26T14:09:26.164Z,16.27
2022-08-26T14:11:55.150Z,16.35
2022-08-26T14:14:24.059Z,16.38
2022-08-26T14:17:00.101Z,16.44
2022-08-26T14:19:31.391Z,16.52
2022-08-26T14:22:01.593Z,16.61
2022-08-26T14:24:30.902Z,16.70
2022-08-26T14:26:59.649Z,16.77
2022-08-26T14:29:29.671Z,16.89
2022-08-26T14:32:01.028Z,16.98
2022-08-26T14:34:30.573Z,17.06
2022-08-26T14:36:59.404Z,17.15
2022-08-26T14:39:38.393Z,17.18
2022-08-26T14:42:08.283Z,17.28
2022-08-26T14:44:37.587Z,17.41
2022-08-26T14:47:08.024Z,17.45
2022-08-26T14:49:37.045Z,17.51
2022-08-26T14:52:05.850Z,17.66
2022-08-26T14:54:34.931Z,17.71
2022-08-26T14:57:07.695Z,17.83
2022-08-26T14:59:39.930Z,17.88
2022-08-26T15:02:13.991Z,17.92
2022-08-26T15:04:56.412Z,18.01
2022-08-26T15:07:25.049Z,18.08
2022-08-26T15:09:53.661Z,18.22
2022-08-26T15:12:23.124Z,18.30
2022-08-26T15:14:51.725Z,18.35
2022-08-26T15:17:20.349Z,18.39
2022-08-26T15:19:49.012Z,18.50
2022-08-26T15:22:17.657Z,18.52
2022-08-26T15:24:46.272Z,18.64
2022-08-26T15:27:14.985Z,18.70
2022-08-26T15:29:45.111Z,18.85
2022-08-26T15:32:13.924Z,18.95
2022-08-26T15:34:42.578Z,19.09
2022-08-26T15:37:11.579Z,19.23
2022-08-26T15:39:40.515Z,19.36
2022-08-26T15:42:09.319Z,19.45
2022-08-26T15:44:38.017Z,19.53
2022-08-26T15:47:07.193Z,19.64
2022-08-26T15:49:36.189Z,19.84
2022-08-26T15:52:05.593Z,19.93
2022-08-26T15:54:34.224Z,19.85
2022-08-26T15:57:07.138Z,19.95
2022-08-26T15:59:38.426Z,20.10
2022-08-26T16:02:06.869Z,20.33
2022-08-26T16:04:35.534Z,20.44
2022-08-26T16:07:05.662Z,20.58
2022-08-26T16:09:34.079Z,20.75
2022-08-26T16:12:02.757Z,21.00
2022-08-26T16:14:31.514Z,21.16
2022-08-26T16:16:59.911Z,21.43
2022-08-26T16:19:28.530Z,21.55
2022-08-26T16:21:57.150Z,21.86
2022-08-26T16:24:30.254Z,22.27
2022-08-26T16:26:59.232Z,22.56
2022-08-26T16:29:28.476Z,22.95
2022-08-26T16:31:57.150Z,23.30
2022-08-26T16:34:26.053Z,23.44
2022-08-26T16:36:54.807Z,23.91
2022-08-26T16:39:23.380Z,24.33
2022-08-26T16:41:52.084Z,24.35
2022-08-26T16:44:20.792Z,24.80
2022-08-26T16:46:49.679Z,24.95
2022-08-26T16:49:19.131Z,25.33
2022-08-26T16:51:48.295Z,25.25
2022-08-26T16:54:16.276Z,25.66
2022-08-26T16:56:44.977Z,25.62
2022-08-26T16:59:13.789Z,26.01
2022-08-26T17:01:42.456Z,26.13
2022-08-26T17:04:11.120Z,26.78
2022-08-26T17:06:39.837Z,26.15
2022-08-26T17:09:09.182Z,26.69
2022-08-26T17:11:37.840Z,26.67
2022-08-26T17:14:07.496Z,27.12
2022-08-26T17:16:36.317Z,27.03
2022-08-26T17:19:06.364Z,27.44
2022-08-26T17:21:36.731Z,27.51
2022-08-26T17:24:07.295Z,27.96
2022-08-26T17:26:36.334Z,27.73
2022-08-26T17:29:06.015Z,27.86
2022-08-26T17:31:36.316Z,27.87
2022-08-26T17:34:05.271Z,27.52
2022-08-26T17:36:33.892Z,27.45
2022-08-26T17:39:02.974Z,28.21
2022-08-26T17:41:31.677Z,28.39
2022-08-26T17:44:00.315Z,28.84
2022-08-26T17:46:29.412Z,28.69
2022-08-26T17:48:58.484Z,28.61
2022-08-26T17:51:26.943Z,28.99
2022-08-26T17:53:55.405Z,29.09
2022-08-26T17:56:27.967Z,29.35
2022-08-26T17:59:02.465Z,29.48
2022-08-26T18:01:32.991Z,29.34
2022-08-26T18:04:01.813Z,29.60
2022-08-26T18:06:31.832Z,29.93
2022-08-26T18:09:01.364Z,29.07
2022-08-26T18:11:30.592Z,29.57
2022-08-26T18:13:59.260Z,29.86
2022-08-26T18:16:28.654Z,29.61
2022-08-26T18:18:57.431Z,29.33
2022-08-26T18:21:29.173Z,29.36
2022-08-26T18:23:57.899Z,29.58
2022-08-26T18:26:33.268Z,29.54
2022-08-26T18:29:03.149Z,29.24
2022-08-26T18:31:32.605Z,29.31
2022-08-26T18:34:03.636Z,29.44
2022-08-26T18:36:37.844Z,29.76
2022-08-26T18:39:07.639Z,29.69
2022-08-26T18:41:44.226Z,28.97
2022-08-26T18:44:14.933Z,29.40
2022-08-26T18:46:45.907Z,29.37
2022-08-26T18:49:16.955Z,29.02
2022-08-26T18:51:46.756Z,28.93
2022-08-26T18:54:15.977Z,27.69
2022-08-26T18:56:44.537Z,28.40
2022-08-26T18:59:14.198Z,28.72
2022-08-26T19:01:44.346Z,29.23
2022-08-26T19:04:15.419Z,29.27
2022-08-26T19:06:48.758Z,29.26
2022-08-26T19:09:18.485Z,29.35
2022-08-26T19:11:47.975Z,28.71
2022-08-26T19:14:18.601Z,28.56
2022-08-26T19:16:48.931Z,29.08
2022-08-26T19:19:18.234Z,29.38
2022-08-26T19:21:48.392Z,29.01
2022-08-26T19:24:19.416Z,28.77
2022-08-26T19:26:57.438Z,28.63
2022-08-26T19:29:29.054Z,28.93
2022-08-26T19:31:58.109Z,28.84
2022-08-26T19:34:27.200Z,28.93
2022-08-26T19:36:58.326Z,28.01
2022-08-26T19:39:28.216Z,28.37
2022-08-26T19:41:56.257Z,28.43
2022-08-26T19:44:43.855Z,28.81
2022-08-26T19:47:14.033Z,28.92
2022-08-26T19:49:42.474Z,29.10
2022-08-26T19:52:12.794Z,28.89
2022-08-26T19:54:41.847Z,28.66
2022-08-26T19:57:11.708Z,28.73
2022-08-26T19:59:41.640Z,28.68
2022-08-26T20:02:11.422Z,28.85
2022-08-26T20:04:40.663Z,28.76
2022-08-26T20:07:12.035Z,28.70
2022-08-26T20:09:41.784Z,28.15
2022-08-26T20:12:11.077Z,28.14
2022-08-26T20:14:40.024Z,28.35
2022-08-26T20:17:08.766Z,28.27
2022-08-26T20:19:56.121Z,28.07
2022-08-26T20:22:25.076Z,28.14
2022-08-26T20:24:53.936Z,28.32
2022-08-26T20:27:34.717Z,28.41
2022-08-26T20:30:09.157Z,27.99
2022-08-26T20:32:39.812Z,28.02
2022-08-26T20:35:11.428Z,28.05
2022-08-26T20:37:40.619Z,28.34
2022-08-26T20:40:10.387Z,28.32
2022-08-26T20:42:39.097Z,28.36
2022-08-26T20:45:09.016Z,28.46
2022-08-26T20:47:38.041Z,28.37
2022-08-26T20:50:09.407Z,28.18
2022-08-26T20:52:38.070Z,27.90
2022-08-26T20:55:07.311Z,27.97
2022-08-26T20:57:36.065Z,28.13
2022-08-26T21:00:06.423Z,28.07
2022-08-26T21:02:35.959Z,28.32
2022-08-26T21:05:05.256Z,28.27
2022-08-26T21:07:33.767Z,28.60
2022-08-26T21:10:02.717Z,28.39
2022-08-26T21:12:32.351Z,27.99
2022-08-26T21:15:01.528Z,28.15
2022-08-26T21:17:30.615Z,27.84
2022-08-26T21:19:59.386Z,27.73
2022-08-26T21:22:27.955Z,28.13
2022-08-26T21:24:56.764Z,28.37
2022-08-26T21:27:26.633Z,28.35
2022-08-26T21:29:59.644Z,28.49
2022-08-26T21:32:28.088Z,28.63
2022-08-26T21:35:01.142Z,28.63
2022-08-26T21:37:30.175Z,28.68
2022-08-26T21:40:00.276Z,28.73
2022-08-26T21:42:29.458Z,28.86
2022-08-26T21:44:58.768Z,28.72
2022-08-26T21:47:28.271Z,28.41
2022-08-26T21:49:57.104Z,28.41
2022-08-26T21:52:26.109Z,28.64
2022-08-26T21:55:00.065Z,28.16
2022-08-26T21:57:30.197Z,28.37
2022-08-26T21:59:59.027Z,28.14
2022-08-26T22:02:27.674Z,28.40
2022-08-26T22:04:57.719Z,28.67
2022-08-26T22:07:26.411Z,28.43
2022-08-26T22:09:55.035Z,28.20
2022-08-26T22:12:23.764Z,27.66
2022-08-26T22:14:52.408Z,27.79
2022-08-26T22:17:21.017Z,27.71
2022-08-26T22:19:49.706Z,27.91
2022-08-26T22:22:18.821Z,27.77
2022-08-26T22:24:47.419Z,27.85
2022-08-26T22:27:16.188Z,27.92
2022-08-26T22:29:45.054Z,28.09
2022-08-26T22:32:13.794Z,27.86
2022-08-26T22:34:43.361Z,27.69
2022-08-26T22:37:13.078Z,27.70
2022-08-26T22:39:41.765Z,27.81
2022-08-26T22:42:10.584Z,28.18
2022-08-26T22:44:39.288Z,28.11
2022-08-26T22:47:08.453Z,27.97
2022-08-26T22:49:37.284Z,28.28
2022-08-26T22:52:05.950Z,28.39
2022-08-26T22:54:34.810Z,27.99
2022-08-26T22:57:03.446Z,28.01
2022-08-26T22:59:32.066Z,27.89
2022-08-26T23:02:00.725Z,27.97
2022-08-26T23:04:29.118Z,27.93
2022-08-26T23:06:57.772Z,28.00
2022-08-26T23:09:26.408Z,27.81
2022-08-26T23:11:57.467Z,27.83
2022-08-26T23:14:27.039Z,27.77
2022-08-26T23:16:55.690Z,27.90
2022-08-26T23:19:25.084Z,27.77
2022-08-26T23:21:53.913Z,27.81
2022-08-26T23:24:22.748Z,27.97
2022-08-26T23:26:51.513Z,28.09
2022-08-26T23:29:20.254Z,27.91
2022-08-26T23:31:48.958Z,27.72
2022-08-26T23:34:35.902Z,27.79
2022-08-26T23:37:06.725Z,27.78
2022-08-26T23:39:35.523Z,27.69
2022-08-26T23:42:04.589Z,27.65
2022-08-26T23:44:33.715Z,27.61
2022-08-26T23:47:02.972Z,27.54
2022-08-26T23:49:31.969Z,27.59
2022-08-26T23:52:20.243Z,27.84
2022-08-26T23:54:50.016Z,27.72
2022-08-26T23:57:19.924Z,27.84
2022-08-26T23:59:49.850Z,27.84
